Latest Weather Observations for Cape Grim

IDT60801

Issued at 3:31 pm EST Tuesday 1 September 2015 (issued every 30 minutes, with the page automatically refreshed every 10 minutes)

About weather observations | Map of weather stations | Latest weather observations for TAS | Other Formats
Station Details ID: 091331 Name: CAPE GRIM Lat: -40.68 Lon: 144.69 Height: 86.0 m
Data from the previous 72 hours. | See also: Recent months at Cape Grim
Date/Time
EST
Temp
°C
App
Temp
°C
Dew
Point
Rel
Hum
%
Delta-T
°C
Wind Press
QNH
hPa
Press
MSL
hPa
Rain
since 9 am
mm
Dir
 
Spd
km/h
Gust
km/h
Spd
kts
Gust
kts
01/03:30pm 8.9 5.3 3.1 67 2.5 NNW 11 15 6 8 1014.0 1014.1 0.0
01/03:00pm 9.1 5.2 3.5 68 2.4 NW 13 19 7 10 1014.3 1014.4 0.0
01/02:30pm 8.6 5.4 3.0 68 2.4 WSW 9 13 5 7 1014.4 1014.5 0.0
01/02:00pm 8.8 5.7 3.4 69 2.3 W 9 17 5 9 1014.7 1014.8 0.0
01/01:30pm 9.1 6.0 3.7 69 2.4 W 9 15 5 8 1015.2 1015.3 0.0
01/01:00pm 9.5 5.7 4.1 69 2.4 WNW 13 17 7 9 1015.2 1015.3 0.0
01/12:30pm 9.1 5.6 3.5 68 2.4 NW 11 15 6 8 1015.8 1015.9 0.0
01/12:00pm 9.2 5.7 3.6 68 2.4 WNW 11 15 6 8 1016.1 1016.2 0.0
01/11:30am 9.2 5.4 3.8 69 2.4 NNW 13 17 7 9 1016.4 1016.5 0.0
01/11:00am 8.9 5.0 3.5 69 2.3 NW 13 17 7 9 1016.4 1016.5 0.0
01/10:30am 9.3 6.3 3.9 69 2.4 N 9 15 5 8 1016.4 1016.5 0.0
01/10:00am 8.8 5.7 3.4 69 2.3 NNW 9 17 5 9 1016.4 1016.5 0.0
01/09:30am 8.7 6.2 3.5 70 2.2 SSE 6 11 3 6 1016.3 1016.4 0.0
01/09:00am 8.2 5.6 3.1 70 2.2 NNW 6 11 3 6 1016.5 1016.6 0.0
01/08:30am 8.1 5.0 3.8 74 1.9 ENE 9 13 5 7 1016.3 1016.4 0.0
01/08:00am 7.7 4.9 3.4 74 1.8 SE 7 9 4 5 1016.2 1016.3 0.0
01/07:30am 7.3 4.1 3.2 75 1.7 E 9 13 5 7 1016.0 1016.1 0.0
01/07:00am 7.3 4.7 3.0 74 1.8 E 6 9 3 5 1016.0 1016.1 0.0
01/06:30am 7.5 4.7 3.2 74 1.8 NNE 7 13 4 7 1016.0 1016.1 0.0
01/06:00am 6.9 5.1 3.2 77 1.6 ENE 2 6 1 3 1015.9 1016.0 0.0
01/05:30am 7.0 5.1 3.1 76 1.6 E 2 7 1 4 1016.0 1016.1 0.0
01/05:00am 6.8 4.1 2.7 75 1.7 E 6 9 3 5 1016.0 1016.1 0.0
01/04:30am 7.6 4.0 3.1 73 1.9 NNW 11 17 6 9 1016.0 1016.1 0.0
01/04:00am 8.0 4.5 3.7 74 1.9 W 11 15 6 8 1016.0 1016.1 0.0
01/03:30am 8.2 5.5 3.9 74 1.9 W 7 11 4 6 1016.2 1016.3 0.0
01/03:00am 8.3 5.6 3.9 74 1.9 WSW 7 11 4 6 1016.5 1016.6 0.0
01/02:30am 8.3 4.9 3.9 74 1.9 SW 11 15 6 8 1016.8 1016.9 0.0
01/02:00am 8.1 5.4 3.8 74 1.9 WSW 7 11 4 6 1017.1 1017.2 0.0
01/01:30am 7.9 5.2 3.6 74 1.9 W 7 13 4 7 1017.4 1017.5 0.0
01/01:00am 8.0 4.5 3.7 74 1.9 W 11 15 6 8 1017.5 1017.6 0.0
01/12:30am 7.6 4.9 3.6 76 1.7 WSW 7 9 4 5 1017.6 1017.7 0.0
01/12:00am 7.2 4.9 2.9 74 1.8 W 4 9 2 5 1017.9 1017.9 0.0
 
Date/Time
EST
Temp
°C
App
Temp
°C
Dew
Point
Rel
Hum
%
Delta-T
°C
Wind Press
QNH
hPa
Press
MSL
hPa
Rain
since 9 am
mm
Dir
 
Spd
km/h
Gust
km/h
Spd
kts
Gust
kts
31/11:30pm 7.7 4.9 3.4 74 1.8 W 7 9 4 5 1018.1 1018.2 0.0
31/11:00pm 7.5 4.9 3.0 73 1.9 W 6 7 3 4 1018.1 1018.2 0.0
31/10:30pm 7.5 5.6 3.0 73 1.9 W 2 9 1 5 1018.3 1018.4 0.0
31/10:00pm 7.5 6.0 3.0 73 1.9 CALM 0 7 0 4 1018.3 1018.4 0.0
31/09:30pm 7.8 5.6 3.3 73 1.9 WSW 4 11 2 6 1018.5 1018.6 0.0
31/09:00pm 7.4 4.1 2.7 72 2.0 W 9 15 5 8 1018.8 1018.9 0.0
31/08:30pm 7.4 3.7 2.5 71 2.0 W 11 13 6 7 1018.7 1018.8 0.0
31/08:00pm 8.0 4.8 2.9 70 2.2 W 9 15 5 8 1018.4 1018.5 0.0
31/07:30pm 8.3 5.6 2.8 68 2.3 NNW 6 13 3 7 1018.4 1018.5 0.0
31/07:00pm 8.7 5.5 2.9 67 2.5 WNW 9 13 5 7 1018.4 1018.5 0.0
31/06:30pm 8.9 5.7 3.3 68 2.4 WSW 9 17 5 9 1018.4 1018.5 0.0
31/06:00pm 8.9 5.7 3.3 68 2.4 WSW 9 13 5 7 1018.5 1018.6 0.0
31/05:30pm 9.0 5.8 3.2 67 2.5 W 9 11 5 6 1018.5 1018.6 0.0
31/05:00pm 9.8 6.4 3.8 66 2.6 WNW 11 15 6 8 1018.6 1018.7 0.0
31/04:30pm 9.7 6.3 4.1 68 2.5 W 11 19 6 10 1018.6 1018.7 0.0
31/04:00pm 9.7 5.9 4.1 68 2.5 W 13 19 7 10 1018.9 1019.0 0.0
31/03:30pm 9.9 7.5 5.3 73 2.1 W 7 9 4 5 1018.8 1018.9 0.0
31/03:00pm 10.1 7.4 5.5 73 2.1 NW 9 11 5 6 1018.9 1019.0 0.0
31/02:30pm 10.0 6.8 5.0 71 2.3 NNW 11 13 6 7 1018.9 1019.0 0.0
31/02:00pm 10.7 7.5 5.3 69 2.5 NNW 11 13 6 7 1019.1 1019.2 0.0
31/01:30pm 11.2 8.9 5.7 69 2.6 NNW 7 13 4 7 1019.5 1019.6 0.0
31/01:00pm 11.2 8.9 5.5 68 2.6 N 7 13 4 7 1019.8 1019.9 0.0
31/12:30pm 11.1 8.1 5.8 70 2.5 NE 11 20 6 11 1020.0 1020.1 0.0
31/12:00pm 10.1 7.2 4.7 69 2.4 NNE 9 13 5 7 1020.5 1020.6 0.0
31/11:30am 10.4 6.9 5.4 71 2.3 ENE 13 19 7 10 1020.7 1020.8 0.0
31/11:00am 10.0 6.5 5.6 74 2.0 NE 13 20 7 11 1021.0 1021.1 0.0
31/10:30am 9.8 5.2 5.6 75 1.9 NE 19 20 10 11 1021.1 1021.2 0.0
31/10:00am 9.8 5.3 6.0 77 1.8 ENE 19 24 10 13 1021.1 1021.2 0.0
31/09:30am 9.5 5.3 5.9 78 1.7 NE 17 22 9 12 1021.2 1021.3 0.0
31/09:00am 9.0 5.3 6.3 83 1.2 ENE 15 19 8 10 1021.2 1021.3 0.2
31/08:30am 8.3 4.2 6.3 87 0.9 ENE 17 19 9 10 1021.1 1021.2 0.2
31/08:00am 6.6 2.2 4.8 88 0.8 ENE 17 20 9 11 1021.1 1021.2 0.2
31/07:30am 6.9 3.0 5.4 90 0.7 ENE 15 17 8 9 1021.1 1021.2 0.2
31/07:00am 5.6 1.1 4.2 91 0.6 ENE 17 19 9 10 1020.8 1020.9 0.2
31/06:30am 5.0 0.4 3.7 91 0.5 ENE 17 19 9 10 1020.7 1020.8 0.2
31/06:00am 4.7 0.0 3.2 90 0.6 ENE 17 19 9 10 1020.7 1020.8 0.2
31/05:30am 4.7 0.0 3.2 90 0.6 ENE 17 19 9 10 1020.5 1020.6 0.2
31/05:00am 4.9 -0.1 3.4 90 0.6 ENE 19 20 10 11 1020.5 1020.6 0.2
31/04:30am 5.0 0.0 3.7 91 0.5 ENE 19 20 10 11 1020.5 1020.6 0.2
31/04:00am 5.1 -0.1 3.8 91 0.5 E 20 22 11 12 1020.4 1020.5 0.2
31/03:30am 5.4 0.3 4.1 91 0.6 E 20 24 11 13 1020.6 1020.7 0.2
31/03:00am 5.2 0.2 3.7 90 0.6 E 19 22 10 12 1020.8 1020.9 0.2
31/02:30am 5.5 0.4 4.0 90 0.6 E 20 22 11 12 1021.1 1021.2 0.2
31/02:00am 5.3 1.1 3.6 89 0.7 E 15 17 8 9 1021.6 1021.7 0.2
31/01:30am 4.8 0.8 3.0 88 0.7 E 13 15 7 8 1021.9 1022.0 0.2
31/01:00am 4.8 0.4 2.8 87 0.8 E 15 17 8 9 1021.9 1022.0 0.2
31/12:30am 5.0 1.0 2.9 86 0.9 ESE 13 15 7 8 1021.9 1022.0 0.2
31/12:00am 5.8 2.7 3.5 85 1.0 SE 9 11 5 6 1022.2 1022.3 0.2
 
Date/Time
EST
Temp
°C
App
Temp
°C
Dew
Point
Rel
Hum
%
Delta-T
°C
Wind Press
QNH
hPa
Press
MSL
hPa
Rain
since 9 am
mm
Dir
 
Spd
km/h
Gust
km/h
Spd
kts
Gust
kts
30/11:30pm 7.5 5.3 5.1 85 1.1 SW 6 7 3 4 1022.2 1022.3 0.2
30/11:00pm 7.6 5.2 5.1 84 1.1 SSW 7 9 4 5 1022.5 1022.6 0.2
30/10:30pm 6.9 4.5 4.4 84 1.1 SSW 6 9 3 5 1022.7 1022.8 0.2
30/10:00pm 6.6 2.8 4.1 84 1.1 SSW 13 13 7 7 1022.6 1022.7 0.2
30/09:30pm 7.1 3.4 4.6 84 1.1 S 13 17 7 9 1022.8 1022.9 0.2
30/09:00pm 7.4 3.8 4.9 84 1.1 SSW 13 17 7 9 1022.8 1022.9 0.2
30/08:30pm 7.9 4.3 5.0 82 1.3 SSW 13 17 7 9 1022.8 1022.9 0.2
30/08:00pm 7.9 4.6 4.8 81 1.4 SSW 11 15 6 8 1022.6 1022.7 0.2
30/07:30pm 7.9 4.6 4.7 80 1.4 SSW 11 15 6 8 1022.3 1022.4 0.2
30/07:00pm 8.5 3.7 4.9 78 1.6 S 19 24 10 13 1022.2 1022.3 0.2
30/06:30pm 8.8 4.4 5.0 77 1.7 S 17 24 9 13 1022.0 1022.1 0.2
30/06:00pm 9.3 3.3 5.3 76 1.8 SSW 26 33 14 18 1022.0 1022.1 0.2
30/05:30pm 9.6 3.2 5.2 74 2.0 SSW 28 35 15 19 1021.9 1022.0 0.2
30/05:00pm 10.0 3.7 5.6 74 2.0 SSW 28 33 15 18 1022.0 1022.1 0.2
30/04:30pm 10.1 4.5 5.3 72 2.2 SSW 24 35 13 19 1022.1 1022.2 0.2
30/04:00pm 10.1 4.4 4.9 70 2.3 SW 24 35 13 19 1022.2 1022.3 0.2
30/03:30pm 10.2 6.7 3.7 64 2.9 WNW 11 13 6 7 1022.5 1022.6 0.2
30/03:00pm 10.1 7.0 3.4 63 2.9 W 9 13 5 7 1022.6 1022.7 0.2
30/02:30pm 9.9 6.8 3.6 65 2.8 WNW 9 13 5 7 1022.9 1023.0 0.2
30/02:00pm 10.4 7.1 4.8 68 2.5 NW 11 13 6 7 1022.8 1022.9 0.2
30/01:30pm 10.3 6.9 3.8 64 2.9 N 11 22 6 12 1022.9 1023.0 0.0
30/01:00pm 10.2 6.7 3.3 62 3.0 ENE 11 17 6 9 1023.2 1023.3 0.0
30/12:30pm 9.8 5.0 2.6 61 3.1 E 17 20 9 11 1023.6 1023.7 0.0
30/12:00pm 9.6 4.8 2.7 62 2.9 E 17 24 9 13 1023.9 1024.0 0.0
30/11:30am 9.2 4.4 2.5 63 2.8 E 17 24 9 13 1024.2 1024.3 0.0
30/11:00am 9.1 5.0 2.4 63 2.8 ESE 13 24 7 13 1024.4 1024.5 0.0
30/10:30am 8.6 3.4 2.2 64 2.7 SE 19 24 10 13 1024.4 1024.5 0.0
30/10:00am 8.5 2.7 2.3 65 2.6 S 22 32 12 17 1024.7 1024.8 0.0
30/09:30am 7.8 -0.1 2.1 67 2.4 S 33 44 18 24 1024.6 1024.7 0.0
30/09:00am 7.3 -1.1 1.6 67 2.3 S 35 50 19 27 1024.7 1024.8 0.0
30/08:33am 7.1 -0.7 1.6 68 2.2 S 32 50 17 27 1024.8 1024.9 0.0
30/08:30am 7.2 -0.6 1.7 68 2.2 S 32 43 17 23 1024.8 1024.9 0.0
30/08:11am 7.1 -0.7 1.8 69 2.2 S 32 50 17 27 1024.8 1024.9 0.0
30/08:00am 7.0 -1.0 1.5 68 2.2 S 33 46 18 25 1024.6 1024.7 0.0
30/07:35am 6.9 -2.2 2.0 71 2.0 S 39 59 21 32 1024.1 1024.2 0.0
30/07:30am 6.9 -1.8 2.2 72 1.9 S 37 50 20 27 1024.2 1024.3 0.0
30/07:10am 6.8 -1.4 2.5 74 1.8 S 35 54 19 29 1024.2 1024.3 0.0
30/07:00am 6.8 -2.2 2.3 73 1.8 S 39 54 21 29 1024.1 1024.2 0.0
30/06:51am 6.8 -1.5 2.3 73 1.9 S 35 54 19 29 1024.0 1024.1 0.0
30/06:30am 6.6 -1.7 2.1 73 1.8 S 35 48 19 26 1024.1 1024.2 0.0
30/06:00am 6.7 -2.0 2.2 73 1.8 S 37 52 20 28 1023.7 1023.8 0.0
30/05:30am 6.5 -2.6 1.8 72 1.9 S 39 59 21 32 1023.7 1023.8 0.0
30/05:24am 6.6 -2.5 1.9 72 1.9 S 39 59 21 32 1023.7 1023.8 0.0
30/05:00am 6.4 -2.7 1.7 72 1.9 S 39 54 21 29 1023.4 1023.5 0.0
30/04:30am 6.2 -2.2 1.7 73 1.8 S 35 50 19 27 1023.4 1023.5 0.0
30/04:00am 6.3 -2.8 1.6 72 1.9 S 39 56 21 30 1023.3 1023.4 0.0
30/03:58am 6.2 -2.2 1.5 72 1.9 S 35 56 19 30 1023.3 1023.4 0.0
30/03:30am 6.1 -1.9 1.4 72 1.9 S 33 48 18 26 1023.6 1023.7 0.0
30/03:00am 6.3 -2.1 1.6 72 1.9 S 35 46 19 25 1023.5 1023.6 0.0
30/02:30am 6.1 -1.9 1.6 73 1.8 S 33 56 18 30 1023.6 1023.7 0.0
30/02:27am 6.2 -1.8 1.5 72 1.9 S 33 56 18 30 1023.6 1023.7 0.0
30/02:00am 6.3 -1.1 1.8 73 1.8 S 30 44 16 24 1024.1 1024.2 0.0
30/01:44am 6.4 -2.0 1.7 72 1.9 S 35 54 19 29 1024.3 1024.4 0.0
30/01:30am 6.5 -2.2 1.8 72 1.9 S 37 52 20 28 1024.3 1024.4 0.0
30/01:00am 6.7 -2.4 2.0 72 1.9 S 39 50 21 27 1024.5 1024.6 0.0
30/12:30am 6.8 -1.1 2.1 72 1.9 S 33 48 18 26 1024.5 1024.6 0.0
30/12:05am 7.2 -1.8 2.3 71 2.0 S 39 57 21 31 1024.4 1024.5 0.0
30/12:00am 7.1 -1.9 2.2 71 2.0 S 39 50 21 27 1024.5 1024.6 0.0
 
Date/Time
EST
Temp
°C
App
Temp
°C
Dew
Point
Rel
Hum
%
Delta-T
°C
Wind Press
QNH
hPa
Press
MSL
hPa
Rain
since 9 am
mm
Dir
 
Spd
km/h
Gust
km/h
Spd
kts
Gust
kts
29/11:30pm 7.2 -1.8 2.3 71 2.0 S 39 50 21 27 1024.6 1024.7 0.0
29/11:06pm 7.2 -0.7 2.5 72 2.0 S 33 52 18 28 1025.1 1025.2 0.0
29/11:00pm 7.5 -0.7 2.8 72 2.0 S 35 52 19 28 1025.1 1025.2 0.0
29/10:59pm 7.4 -0.4 2.7 72 2.0 S 33 52 18 28 1025.2 1025.3 0.0
29/10:30pm 7.9 -0.2 3.2 72 2.0 S 35 46 19 25 1025.3 1025.4 0.0
29/10:08pm 8.0 -0.1 3.5 73 1.9 S 35 54 19 29 1025.4 1025.5 0.0
29/10:00pm 8.0 -0.4 3.5 73 1.9 S 37 50 20 27 1025.4 1025.5 0.0
29/09:35pm 8.3 0.0 4.1 75 1.8 SSW 37 56 20 30 1025.1 1025.2 0.0
29/09:30pm 8.2 0.3 4.2 76 1.8 S 35 50 19 27 1025.1 1025.2 0.0
29/09:00pm 8.5 1.0 4.3 75 1.8 S 33 48 18 26 1025.3 1025.4 0.0
29/08:30pm 8.8 -0.6 4.6 75 1.9 S 43 61 23 33 1024.6 1024.7 0.0
29/08:02pm 8.8 -1.9 4.8 76 1.8 S 50 69 27 37 1024.1 1024.2 0.0
29/08:00pm 8.9 -1.7 4.9 76 1.8 SSW 50 67 27 36 1024.1 1024.2 0.0
29/07:30pm 8.9 -1.7 4.9 76 1.8 SSW 50 70 27 38 1023.9 1024.0 0.0
29/07:01pm 8.9 -1.4 4.9 76 1.8 SSW 48 67 26 36 1024.0 1024.1 0.0
29/07:00pm 8.9 -1.7 4.9 76 1.8 SSW 50 67 27 36 1024.0 1024.1 0.0
29/06:30pm 9.0 -1.9 5.4 78 1.6 SSW 52 70 28 38 1023.8 1023.9 0.0
29/06:00pm 9.1 -1.4 5.5 78 1.6 SSW 50 69 27 37 1023.6 1023.7 0.0
29/05:30pm 9.2 -0.5 5.6 78 1.6 SSW 46 67 25 36 1023.5 1023.6 0.0
29/05:05pm 9.6 -0.9 5.8 77 1.7 SSW 50 69 27 37 1023.2 1023.3 0.0
29/05:00pm 9.6 -1.7 5.4 75 1.9 SSW 54 69 29 37 1023.2 1023.3 0.0
29/04:30pm 9.6 -1.6 6.0 78 1.7 SSW 54 76 29 41 1023.2 1023.3 0.0
29/04:10pm 9.8 -0.6 6.2 78 1.7 SSW 50 69 27 37 1023.1 1023.2 0.0
29/04:00pm 10.2 -0.6 6.2 76 1.9 SSW 52 69 28 37 1022.9 1023.0 0.0

Other Formats:

Comma delimited format used in spreadsheet applications
http://www.bom.gov.au/fwo/IDT60801/IDT60801.95954.axf

JavaScript Object Notation format (JSON) in row-major order
http://www.bom.gov.au/fwo/IDT60801/IDT60801.95954.json